sensor_id;sensor_type;location;lat;lon;timestamp;P1;durP1;ratioP1;P2;durP2;ratioP2
27804;SDS011;15183;51.350;11.102;2024-02-28T00:02:06;21.25;;;13.13;;
27804;SDS011;15183;51.350;11.102;2024-02-28T00:04:32;21.63;;;12.98;;
27804;SDS011;15183;51.350;11.102;2024-02-28T00:06:59;18.38;;;12.25;;
27804;SDS011;15183;51.350;11.102;2024-02-28T00:09:25;17.10;;;12.20;;
27804;SDS011;15183;51.350;11.102;2024-02-28T00:11:52;20.35;;;13.20;;
27804;SDS011;15183;51.350;11.102;2024-02-28T00:14:18;18.73;;;12.20;;
27804;SDS011;15183;51.350;11.102;2024-02-28T00:16:45;15.32;;;11.02;;
27804;SDS011;15183;51.350;11.102;2024-02-28T00:19:13;21.00;;;13.30;;
27804;SDS011;15183;51.350;11.102;2024-02-28T00:21:40;17.65;;;11.48;;
27804;SDS011;15183;51.350;11.102;2024-02-28T00:24:07;20.98;;;12.80;;
27804;SDS011;15183;51.350;11.102;2024-02-28T00:26:33;18.98;;;11.90;;
27804;SDS011;15183;51.350;11.102;2024-02-28T00:29:00;22.20;;;11.90;;
27804;SDS011;15183;51.350;11.102;2024-02-28T00:31:27;20.38;;;13.90;;
27804;SDS011;15183;51.350;11.102;2024-02-28T00:33:53;24.95;;;14.60;;
27804;SDS011;15183;51.350;11.102;2024-02-28T00:36:19;20.83;;;12.48;;
27804;SDS011;15183;51.350;11.102;2024-02-28T00:38:46;18.92;;;11.35;;
27804;SDS011;15183;51.350;11.102;2024-02-28T00:41:12;18.50;;;12.50;;
27804;SDS011;15183;51.350;11.102;2024-02-28T00:43:39;16.25;;;11.02;;
27804;SDS011;15183;51.350;11.102;2024-02-28T00:46:07;20.00;;;12.90;;
27804;SDS011;15183;51.350;11.102;2024-02-28T00:48:38;16.55;;;11.10;;
27804;SDS011;15183;51.350;11.102;2024-02-28T00:51:05;19.45;;;11.43;;
27804;SDS011;15183;51.350;11.102;2024-02-28T00:53:33;21.60;;;13.35;;
27804;SDS011;15183;51.350;11.102;2024-02-28T00:56:00;22.17;;;13.48;;
27804;SDS011;15183;51.350;11.102;2024-02-28T00:58:26;16.08;;;11.40;;
27804;SDS011;15183;51.350;11.102;2024-02-28T01:00:55;16.15;;;11.60;;
27804;SDS011;15183;51.350;11.102;2024-02-28T01:03:22;21.83;;;13.85;;
27804;SDS011;15183;51.350;11.102;2024-02-28T01:05:49;22.13;;;14.15;;
27804;SDS011;15183;51.350;11.102;2024-02-28T01:08:16;24.55;;;15.35;;
27804;SDS011;15183;51.350;11.102;2024-02-28T01:10:43;24.92;;;15.27;;
27804;SDS011;15183;51.350;11.102;2024-02-28T01:13:11;22.30;;;14.48;;
27804;SDS011;15183;51.350;11.102;2024-02-28T01:15:41;20.88;;;13.05;;
27804;SDS011;15183;51.350;11.102;2024-02-28T01:18:08;22.55;;;14.02;;
27804;SDS011;15183;51.350;11.102;2024-02-28T01:20:36;23.83;;;15.90;;
27804;SDS011;15183;51.350;11.102;2024-02-28T01:23:03;23.90;;;14.88;;
27804;SDS011;15183;51.350;11.102;2024-02-28T01:25:30;20.35;;;13.88;;
27804;SDS011;15183;51.350;11.102;2024-02-28T01:27:56;22.58;;;14.32;;
27804;SDS011;15183;51.350;11.102;2024-02-28T01:30:25;21.88;;;15.05;;
27804;SDS011;15183;51.350;11.102;2024-02-28T01:32:52;22.60;;;15.25;;
27804;SDS011;15183;51.350;11.102;2024-02-28T01:35:18;21.67;;;14.23;;
27804;SDS011;15183;51.350;11.102;2024-02-28T01:37:45;21.90;;;14.82;;
27804;SDS011;15183;51.350;11.102;2024-02-28T01:40:12;22.85;;;14.75;;
27804;SDS011;15183;51.350;11.102;2024-02-28T01:42:38;22.23;;;14.68;;
27804;SDS011;15183;51.350;11.102;2024-02-28T01:45:05;23.85;;;14.43;;
27804;SDS011;15183;51.350;11.102;2024-02-28T01:47:38;22.95;;;15.45;;
27804;SDS011;15183;51.350;11.102;2024-02-28T01:50:05;21.05;;;14.35;;
27804;SDS011;15183;51.350;11.102;2024-02-28T01:52:33;23.55;;;14.88;;
27804;SDS011;15183;51.350;11.102;2024-02-28T01:55:00;22.90;;;15.43;;
27804;SDS011;15183;51.350;11.102;2024-02-28T01:57:28;26.33;;;15.93;;
27804;SDS011;15183;51.350;11.102;2024-02-28T01:59:55;22.85;;;15.15;;
27804;SDS011;15183;51.350;11.102;2024-02-28T02:02:22;21.70;;;14.90;;
27804;SDS011;15183;51.350;11.102;2024-02-28T02:04:49;25.00;;;16.85;;
27804;SDS011;15183;51.350;11.102;2024-02-28T02:07:18;23.73;;;15.77;;
27804;SDS011;15183;51.350;11.102;2024-02-28T02:09:45;21.55;;;15.07;;
27804;SDS011;15183;51.350;11.102;2024-02-28T02:12:12;23.85;;;15.55;;
27804;SDS011;15183;51.350;11.102;2024-02-28T02:14:39;21.25;;;14.88;;
27804;SDS011;15183;51.350;11.102;2024-02-28T02:17:05;21.98;;;14.60;;
27804;SDS011;15183;51.350;11.102;2024-02-28T02:19:32;23.10;;;15.27;;
27804;SDS011;15183;51.350;11.102;2024-02-28T02:22:00;21.00;;;13.88;;
27804;SDS011;15183;51.350;11.102;2024-02-28T02:24:29;21.48;;;14.18;;
27804;SDS011;15183;51.350;11.102;2024-02-28T02:26:59;23.63;;;15.48;;
27804;SDS011;15183;51.350;11.102;2024-02-28T02:29:26;19.27;;;13.25;;
27804;SDS011;15183;51.350;11.102;2024-02-28T02:31:54;22.42;;;13.88;;
27804;SDS011;15183;51.350;11.102;2024-02-28T02:34:20;21.13;;;13.25;;
27804;SDS011;15183;51.350;11.102;2024-02-28T02:36:48;19.70;;;13.35;;
27804;SDS011;15183;51.350;11.102;2024-02-28T02:39:15;21.63;;;14.52;;
27804;SDS011;15183;51.350;11.102;2024-02-28T02:41:41;22.77;;;15.00;;
27804;SDS011;15183;51.350;11.102;2024-02-28T02:44:08;21.65;;;14.40;;
27804;SDS011;15183;51.350;11.102;2024-02-28T02:46:36;22.38;;;15.48;;
27804;SDS011;15183;51.350;11.102;2024-02-28T02:49:02;21.10;;;14.32;;
27804;SDS011;15183;51.350;11.102;2024-02-28T02:51:29;21.00;;;14.07;;
27804;SDS011;15183;51.350;11.102;2024-02-28T02:53:55;21.50;;;13.80;;
27804;SDS011;15183;51.350;11.102;2024-02-28T02:56:22;22.23;;;14.38;;
27804;SDS011;15183;51.350;11.102;2024-02-28T02:58:49;22.05;;;12.80;;
27804;SDS011;15183;51.350;11.102;2024-02-28T03:01:15;20.15;;;13.55;;
27804;SDS011;15183;51.350;11.102;2024-02-28T03:03:42;19.17;;;12.77;;
27804;SDS011;15183;51.350;11.102;2024-02-28T03:06:08;22.27;;;14.55;;
27804;SDS011;15183;51.350;11.102;2024-02-28T03:08:35;22.70;;;13.20;;
27804;SDS011;15183;51.350;11.102;2024-02-28T03:11:02;18.38;;;12.95;;
27804;SDS011;15183;51.350;11.102;2024-02-28T03:13:30;17.00;;;11.98;;
27804;SDS011;15183;51.350;11.102;2024-02-28T03:15:57;20.88;;;12.55;;
27804;SDS011;15183;51.350;11.102;2024-02-28T03:18:24;18.05;;;11.57;;
27804;SDS011;15183;51.350;11.102;2024-02-28T03:20:50;19.17;;;11.80;;
27804;SDS011;15183;51.350;11.102;2024-02-28T03:23:17;20.67;;;12.52;;
27804;SDS011;15183;51.350;11.102;2024-02-28T03:25:43;18.25;;;11.65;;
27804;SDS011;15183;51.350;11.102;2024-02-28T03:28:10;20.50;;;13.27;;
27804;SDS011;15183;51.350;11.102;2024-02-28T03:30:37;21.90;;;13.35;;
27804;SDS011;15183;51.350;11.102;2024-02-28T03:33:03;20.52;;;13.15;;
27804;SDS011;15183;51.350;11.102;2024-02-28T03:35:30;23.55;;;14.35;;
27804;SDS011;15183;51.350;11.102;2024-02-28T03:37:57;22.17;;;13.55;;
27804;SDS011;15183;51.350;11.102;2024-02-28T03:40:23;21.67;;;13.95;;
27804;SDS011;15183;51.350;11.102;2024-02-28T03:42:49;23.25;;;13.35;;
27804;SDS011;15183;51.350;11.102;2024-02-28T03:45:16;26.77;;;16.10;;
27804;SDS011;15183;51.350;11.102;2024-02-28T03:47:45;28.88;;;18.13;;
27804;SDS011;15183;51.350;11.102;2024-02-28T03:50:11;27.30;;;17.08;;
27804;SDS011;15183;51.350;11.102;2024-02-28T03:52:38;26.23;;;16.27;;
27804;SDS011;15183;51.350;11.102;2024-02-28T03:55:05;27.45;;;16.77;;
27804;SDS011;15183;51.350;11.102;2024-02-28T03:57:31;24.73;;;14.93;;
27804;SDS011;15183;51.350;11.102;2024-02-28T04:00:00;26.90;;;15.55;;
27804;SDS011;15183;51.350;11.102;2024-02-28T04:02:28;25.23;;;15.70;;
27804;SDS011;15183;51.350;11.102;2024-02-28T04:04:54;22.38;;;14.13;;
27804;SDS011;15183;51.350;11.102;2024-02-28T04:07:21;24.65;;;14.77;;
27804;SDS011;15183;51.350;11.102;2024-02-28T04:09:48;24.85;;;15.60;;
27804;SDS011;15183;51.350;11.102;2024-02-28T04:12:14;25.17;;;14.80;;
27804;SDS011;15183;51.350;11.102;2024-02-28T04:14:42;23.30;;;14.13;;
27804;SDS011;15183;51.350;11.102;2024-02-28T04:17:09;24.08;;;15.38;;
27804;SDS011;15183;51.350;11.102;2024-02-28T04:19:35;23.23;;;15.30;;
27804;SDS011;15183;51.350;11.102;2024-02-28T04:22:03;23.75;;;15.38;;
27804;SDS011;15183;51.350;11.102;2024-02-28T04:24:29;24.88;;;15.40;;
27804;SDS011;15183;51.350;11.102;2024-02-28T04:26:56;26.20;;;15.32;;
27804;SDS011;15183;51.350;11.102;2024-02-28T04:29:25;24.05;;;14.70;;
27804;SDS011;15183;51.350;11.102;2024-02-28T04:31:51;23.50;;;14.77;;
27804;SDS011;15183;51.350;11.102;2024-02-28T04:34:18;25.52;;;15.10;;
27804;SDS011;15183;51.350;11.102;2024-02-28T04:36:44;25.08;;;15.65;;
27804;SDS011;15183;51.350;11.102;2024-02-28T04:39:11;24.83;;;15.23;;
27804;SDS011;15183;51.350;11.102;2024-02-28T04:41:37;23.70;;;15.13;;
27804;SDS011;15183;51.350;11.102;2024-02-28T04:44:04;23.90;;;15.15;;
27804;SDS011;15183;51.350;11.102;2024-02-28T04:46:30;24.67;;;15.50;;
27804;SDS011;15183;51.350;11.102;2024-02-28T04:48:56;23.67;;;15.00;;
27804;SDS011;15183;51.350;11.102;2024-02-28T04:51:23;23.23;;;14.60;;
27804;SDS011;15183;51.350;11.102;2024-02-28T04:53:49;24.02;;;15.23;;
27804;SDS011;15183;51.350;11.102;2024-02-28T04:56:16;24.83;;;15.55;;
27804;SDS011;15183;51.350;11.102;2024-02-28T04:58:42;24.48;;;15.20;;
27804;SDS011;15183;51.350;11.102;2024-02-28T05:01:09;25.05;;;15.25;;
27804;SDS011;15183;51.350;11.102;2024-02-28T05:03:35;23.27;;;15.32;;
27804;SDS011;15183;51.350;11.102;2024-02-28T05:06:02;24.00;;;14.50;;
27804;SDS011;15183;51.350;11.102;2024-02-28T05:08:28;24.70;;;15.25;;
27804;SDS011;15183;51.350;11.102;2024-02-28T05:10:55;22.45;;;14.52;;
27804;SDS011;15183;51.350;11.102;2024-02-28T05:13:21;22.33;;;14.82;;
27804;SDS011;15183;51.350;11.102;2024-02-28T05:15:50;23.25;;;15.85;;
27804;SDS011;15183;51.350;11.102;2024-02-28T05:18:16;24.48;;;15.32;;
27804;SDS011;15183;51.350;11.102;2024-02-28T05:20:43;22.67;;;14.20;;
27804;SDS011;15183;51.350;11.102;2024-02-28T05:23:09;20.73;;;13.63;;
27804;SDS011;15183;51.350;11.102;2024-02-28T05:25:36;22.75;;;14.75;;
27804;SDS011;15183;51.350;11.102;2024-02-28T05:28:03;25.15;;;16.23;;
27804;SDS011;15183;51.350;11.102;2024-02-28T05:30:31;24.48;;;15.32;;
27804;SDS011;15183;51.350;11.102;2024-02-28T05:32:58;24.30;;;15.52;;
27804;SDS011;15183;51.350;11.102;2024-02-28T05:39:06;23.17;;;14.32;;
27804;SDS011;15183;51.350;11.102;2024-02-28T05:41:33;23.10;;;14.70;;
27804;SDS011;15183;51.350;11.102;2024-02-28T05:44:00;21.67;;;13.98;;
27804;SDS011;15183;51.350;11.102;2024-02-28T05:46:27;21.48;;;14.60;;
27804;SDS011;15183;51.350;11.102;2024-02-28T05:48:53;21.20;;;12.82;;
27804;SDS011;15183;51.350;11.102;2024-02-28T05:51:21;22.65;;;14.57;;
27804;SDS011;15183;51.350;11.102;2024-02-28T05:53:48;24.40;;;15.20;;
27804;SDS011;15183;51.350;11.102;2024-02-28T05:56:14;22.92;;;14.57;;
27804;SDS011;15183;51.350;11.102;2024-02-28T05:58:45;25.58;;;15.57;;
27804;SDS011;15183;51.350;11.102;2024-02-28T06:01:15;23.55;;;14.68;;
27804;SDS011;15183;51.350;11.102;2024-02-28T06:03:44;23.90;;;15.65;;
27804;SDS011;15183;51.350;11.102;2024-02-28T06:06:12;24.20;;;15.32;;
27804;SDS011;15183;51.350;11.102;2024-02-28T06:08:40;23.35;;;15.60;;
27804;SDS011;15183;51.350;11.102;2024-02-28T06:11:07;24.10;;;15.38;;
27804;SDS011;15183;51.350;11.102;2024-02-28T06:13:35;24.50;;;15.73;;
27804;SDS011;15183;51.350;11.102;2024-02-28T06:16:02;24.63;;;15.35;;
27804;SDS011;15183;51.350;11.102;2024-02-28T06:18:30;25.15;;;15.77;;
27804;SDS011;15183;51.350;11.102;2024-02-28T06:20:59;20.85;;;14.30;;
27804;SDS011;15183;51.350;11.102;2024-02-28T06:23:26;25.05;;;15.15;;
27804;SDS011;15183;51.350;11.102;2024-02-28T06:25:53;22.77;;;14.40;;
27804;SDS011;15183;51.350;11.102;2024-02-28T06:28:20;23.10;;;15.43;;
27804;SDS011;15183;51.350;11.102;2024-02-28T06:30:46;28.10;;;17.58;;
27804;SDS011;15183;51.350;11.102;2024-02-28T06:33:13;31.58;;;19.45;;
27804;SDS011;15183;51.350;11.102;2024-02-28T06:35:40;36.50;;;22.88;;
27804;SDS011;15183;51.350;11.102;2024-02-28T06:38:06;39.50;;;24.05;;
27804;SDS011;15183;51.350;11.102;2024-02-28T06:40:33;34.13;;;21.45;;
27804;SDS011;15183;51.350;11.102;2024-02-28T06:43:00;30.05;;;19.90;;
27804;SDS011;15183;51.350;11.102;2024-02-28T06:45:27;34.28;;;20.95;;
27804;SDS011;15183;51.350;11.102;2024-02-28T06:47:55;30.98;;;19.98;;
27804;SDS011;15183;51.350;11.102;2024-02-28T06:50:21;37.10;;;21.13;;
27804;SDS011;15183;51.350;11.102;2024-02-28T06:52:48;31.35;;;20.13;;
27804;SDS011;15183;51.350;11.102;2024-02-28T06:55:14;35.45;;;21.40;;
27804;SDS011;15183;51.350;11.102;2024-02-28T06:57:41;31.77;;;20.90;;
27804;SDS011;15183;51.350;11.102;2024-02-28T07:00:09;33.75;;;20.15;;
27804;SDS011;15183;51.350;11.102;2024-02-28T07:02:40;33.25;;;20.20;;
27804;SDS011;15183;51.350;11.102;2024-02-28T07:05:07;31.75;;;20.60;;
27804;SDS011;15183;51.350;11.102;2024-02-28T07:07:35;36.28;;;21.40;;
27804;SDS011;15183;51.350;11.102;2024-02-28T07:10:05;34.03;;;21.05;;
27804;SDS011;15183;51.350;11.102;2024-02-28T07:12:32;33.00;;;20.48;;
27804;SDS011;15183;51.350;11.102;2024-02-28T07:15:00;28.30;;;18.60;;
27804;SDS011;15183;51.350;11.102;2024-02-28T07:17:27;33.35;;;20.10;;
27804;SDS011;15183;51.350;11.102;2024-02-28T07:19:53;32.42;;;20.65;;
27804;SDS011;15183;51.350;11.102;2024-02-28T07:22:20;32.03;;;19.27;;
27804;SDS011;15183;51.350;11.102;2024-02-28T07:24:48;34.60;;;21.42;;
27804;SDS011;15183;51.350;11.102;2024-02-28T07:27:14;32.97;;;20.33;;
27804;SDS011;15183;51.350;11.102;2024-02-28T07:29:41;35.25;;;21.27;;
27804;SDS011;15183;51.350;11.102;2024-02-28T07:32:08;33.63;;;20.90;;
27804;SDS011;15183;51.350;11.102;2024-02-28T07:34:35;31.17;;;19.83;;
27804;SDS011;15183;51.350;11.102;2024-02-28T07:37:02;35.38;;;21.10;;
27804;SDS011;15183;51.350;11.102;2024-02-28T07:39:29;30.67;;;19.48;;
27804;SDS011;15183;51.350;11.102;2024-02-28T07:41:56;34.38;;;21.15;;
27804;SDS011;15183;51.350;11.102;2024-02-28T07:47:36;29.58;;;19.38;;
27804;SDS011;15183;51.350;11.102;2024-02-28T07:50:03;35.03;;;21.65;;
27804;SDS011;15183;51.350;11.102;2024-02-28T07:52:31;39.95;;;22.63;;
27804;SDS011;15183;51.350;11.102;2024-02-28T07:55:01;35.42;;;22.73;;
27804;SDS011;15183;51.350;11.102;2024-02-28T07:57:27;35.15;;;21.17;;
27804;SDS011;15183;51.350;11.102;2024-02-28T07:59:54;30.10;;;20.08;;
27804;SDS011;15183;51.350;11.102;2024-02-28T08:02:21;33.30;;;20.67;;
27804;SDS011;15183;51.350;11.102;2024-02-28T08:04:47;31.10;;;19.27;;
27804;SDS011;15183;51.350;11.102;2024-02-28T08:07:15;32.33;;;20.48;;
27804;SDS011;15183;51.350;11.102;2024-02-28T08:09:41;34.05;;;20.50;;
27804;SDS011;15183;51.350;11.102;2024-02-28T08:12:09;32.90;;;20.88;;
27804;SDS011;15183;51.350;11.102;2024-02-28T08:14:36;34.20;;;20.92;;
27804;SDS011;15183;51.350;11.102;2024-02-28T08:17:02;32.63;;;19.50;;
27804;SDS011;15183;51.350;11.102;2024-02-28T08:19:29;38.28;;;22.88;;
27804;SDS011;15183;51.350;11.102;2024-02-28T08:21:56;45.42;;;25.10;;
27804;SDS011;15183;51.350;11.102;2024-02-28T08:24:22;45.17;;;27.35;;
27804;SDS011;15183;51.350;11.102;2024-02-28T08:26:48;35.78;;;22.40;;
27804;SDS011;15183;51.350;11.102;2024-02-28T08:29:15;39.25;;;23.42;;
27804;SDS011;15183;51.350;11.102;2024-02-28T08:31:45;32.33;;;20.35;;
27804;SDS011;15183;51.350;11.102;2024-02-28T08:34:11;32.35;;;20.50;;
27804;SDS011;15183;51.350;11.102;2024-02-28T08:36:38;33.15;;;20.15;;
27804;SDS011;15183;51.350;11.102;2024-02-28T08:39:05;33.85;;;19.33;;
27804;SDS011;15183;51.350;11.102;2024-02-28T08:41:33;29.17;;;18.55;;
27804;SDS011;15183;51.350;11.102;2024-02-28T08:44:01;30.52;;;19.88;;
27804;SDS011;15183;51.350;11.102;2024-02-28T08:46:27;32.85;;;19.63;;
27804;SDS011;15183;51.350;11.102;2024-02-28T08:48:54;38.53;;;20.90;;
27804;SDS011;15183;51.350;11.102;2024-02-28T08:51:21;34.92;;;21.83;;
27804;SDS011;15183;51.350;11.102;2024-02-28T08:53:48;38.67;;;21.27;;
27804;SDS011;15183;51.350;11.102;2024-02-28T08:56:15;39.38;;;24.15;;
27804;SDS011;15183;51.350;11.102;2024-02-28T08:58:41;42.50;;;24.33;;
27804;SDS011;15183;51.350;11.102;2024-02-28T09:01:13;35.45;;;21.15;;
27804;SDS011;15183;51.350;11.102;2024-02-28T09:03:43;37.72;;;23.33;;
27804;SDS011;15183;51.350;11.102;2024-02-28T09:06:09;40.95;;;25.05;;
27804;SDS011;15183;51.350;11.102;2024-02-28T09:08:36;38.40;;;22.95;;
27804;SDS011;15183;51.350;11.102;2024-02-28T09:11:02;35.25;;;21.55;;
27804;SDS011;15183;51.350;11.102;2024-02-28T09:13:30;36.22;;;21.67;;
27804;SDS011;15183;51.350;11.102;2024-02-28T09:15:57;36.15;;;21.45;;
27804;SDS011;15183;51.350;11.102;2024-02-28T09:18:24;37.13;;;21.42;;
27804;SDS011;15183;51.350;11.102;2024-02-28T09:20:50;40.50;;;23.15;;
27804;SDS011;15183;51.350;11.102;2024-02-28T09:23:17;33.75;;;20.95;;
27804;SDS011;15183;51.350;11.102;2024-02-28T09:25:43;41.05;;;23.13;;
27804;SDS011;15183;51.350;11.102;2024-02-28T09:28:10;44.42;;;26.33;;
27804;SDS011;15183;51.350;11.102;2024-02-28T09:30:39;42.08;;;25.25;;
27804;SDS011;15183;51.350;11.102;2024-02-28T09:33:06;40.08;;;24.00;;
27804;SDS011;15183;51.350;11.102;2024-02-28T09:35:32;41.13;;;24.50;;
27804;SDS011;15183;51.350;11.102;2024-02-28T09:37:59;37.35;;;22.38;;
27804;SDS011;15183;51.350;11.102;2024-02-28T09:40:26;43.00;;;25.15;;
27804;SDS011;15183;51.350;11.102;2024-02-28T09:42:56;41.47;;;24.27;;
27804;SDS011;15183;51.350;11.102;2024-02-28T09:45:28;37.75;;;22.42;;
27804;SDS011;15183;51.350;11.102;2024-02-28T09:47:56;41.03;;;24.13;;
27804;SDS011;15183;51.350;11.102;2024-02-28T09:50:27;38.72;;;24.05;;
27804;SDS011;15183;51.350;11.102;2024-02-28T09:52:55;43.17;;;24.88;;
27804;SDS011;15183;51.350;11.102;2024-02-28T09:55:22;44.90;;;26.67;;
27804;SDS011;15183;51.350;11.102;2024-02-28T09:57:48;43.00;;;24.90;;
27804;SDS011;15183;51.350;11.102;2024-02-28T10:00:19;43.03;;;24.73;;
27804;SDS011;15183;51.350;11.102;2024-02-28T10:02:47;40.33;;;23.88;;
27804;SDS011;15183;51.350;11.102;2024-02-28T10:05:17;42.63;;;25.25;;
27804;SDS011;15183;51.350;11.102;2024-02-28T10:07:47;37.83;;;23.30;;
27804;SDS011;15183;51.350;11.102;2024-02-28T10:10:16;38.83;;;22.33;;
27804;SDS011;15183;51.350;11.102;2024-02-28T10:12:43;41.85;;;24.00;;
27804;SDS011;15183;51.350;11.102;2024-02-28T10:15:10;36.80;;;22.45;;
27804;SDS011;15183;51.350;11.102;2024-02-28T10:17:37;38.38;;;22.45;;
27804;SDS011;15183;51.350;11.102;2024-02-28T10:20:04;33.05;;;21.15;;
27804;SDS011;15183;51.350;11.102;2024-02-28T10:22:36;36.58;;;22.33;;
27804;SDS011;15183;51.350;11.102;2024-02-28T10:25:03;40.63;;;24.65;;
27804;SDS011;15183;51.350;11.102;2024-02-28T10:27:33;37.45;;;23.58;;
27804;SDS011;15183;51.350;11.102;2024-02-28T10:30:01;42.88;;;23.35;;
27804;SDS011;15183;51.350;11.102;2024-02-28T10:32:32;38.53;;;23.55;;
27804;SDS011;15183;51.350;11.102;2024-02-28T10:35:01;37.72;;;23.30;;
27804;SDS011;15183;51.350;11.102;2024-02-28T10:37:28;41.42;;;23.00;;
27804;SDS011;15183;51.350;11.102;2024-02-28T10:39:58;45.25;;;25.35;;
27804;SDS011;15183;51.350;11.102;2024-02-28T10:42:26;41.95;;;23.02;;
27804;SDS011;15183;51.350;11.102;2024-02-28T10:44:55;35.70;;;21.27;;
27804;SDS011;15183;51.350;11.102;2024-02-28T10:47:24;31.55;;;20.25;;
27804;SDS011;15183;51.350;11.102;2024-02-28T10:49:53;37.65;;;22.80;;
27804;SDS011;15183;51.350;11.102;2024-02-28T10:52:20;43.15;;;25.50;;
27804;SDS011;15183;51.350;11.102;2024-02-28T10:54:52;32.42;;;21.15;;
27804;SDS011;15183;51.350;11.102;2024-02-28T10:57:21;35.25;;;21.95;;
27804;SDS011;15183;51.350;11.102;2024-02-28T10:59:51;36.03;;;21.73;;
27804;SDS011;15183;51.350;11.102;2024-02-28T11:02:18;39.20;;;21.85;;
27804;SDS011;15183;51.350;11.102;2024-02-28T11:04:45;44.40;;;26.02;;
27804;SDS011;15183;51.350;11.102;2024-02-28T11:07:18;39.85;;;24.98;;
27804;SDS011;15183;51.350;11.102;2024-02-28T11:09:46;34.63;;;21.25;;
27804;SDS011;15183;51.350;11.102;2024-02-28T11:14:57;40.35;;;24.63;;
27804;SDS011;15183;51.350;11.102;2024-02-28T11:17:27;38.45;;;23.27;;
27804;SDS011;15183;51.350;11.102;2024-02-28T11:19:58;43.03;;;24.77;;
27804;SDS011;15183;51.350;11.102;2024-02-28T11:22:28;45.75;;;28.25;;
27804;SDS011;15183;51.350;11.102;2024-02-28T11:24:55;42.25;;;25.85;;
27804;SDS011;15183;51.350;11.102;2024-02-28T11:27:22;33.45;;;21.58;;
27804;SDS011;15183;51.350;11.102;2024-02-28T11:29:48;40.03;;;24.02;;
27804;SDS011;15183;51.350;11.102;2024-02-28T11:32:15;38.42;;;24.52;;
27804;SDS011;15183;51.350;11.102;2024-02-28T11:34:42;35.03;;;21.70;;
27804;SDS011;15183;51.350;11.102;2024-02-28T11:37:09;41.88;;;26.08;;
27804;SDS011;15183;51.350;11.102;2024-02-28T11:39:36;42.28;;;25.52;;
27804;SDS011;15183;51.350;11.102;2024-02-28T11:42:09;39.65;;;25.20;;
27804;SDS011;15183;51.350;11.102;2024-02-28T11:44:39;36.03;;;21.33;;
27804;SDS011;15183;51.350;11.102;2024-02-28T11:47:09;46.33;;;25.67;;
27804;SDS011;15183;51.350;11.102;2024-02-28T11:49:37;37.67;;;23.83;;
27804;SDS011;15183;51.350;11.102;2024-02-28T11:52:04;46.13;;;25.52;;
27804;SDS011;15183;51.350;11.102;2024-02-28T11:54:31;39.55;;;24.23;;
27804;SDS011;15183;51.350;11.102;2024-02-28T11:56:58;33.33;;;21.70;;
27804;SDS011;15183;51.350;11.102;2024-02-28T11:59:25;40.97;;;25.33;;
27804;SDS011;15183;51.350;11.102;2024-02-28T12:01:52;46.58;;;29.95;;
27804;SDS011;15183;51.350;11.102;2024-02-28T12:04:18;48.22;;;29.35;;
27804;SDS011;15183;51.350;11.102;2024-02-28T12:06:45;40.47;;;24.35;;
27804;SDS011;15183;51.350;11.102;2024-02-28T12:09:12;36.95;;;23.55;;
27804;SDS011;15183;51.350;11.102;2024-02-28T12:11:43;34.28;;;22.63;;
27804;SDS011;15183;51.350;11.102;2024-02-28T12:14:12;33.20;;;21.45;;
27804;SDS011;15183;51.350;11.102;2024-02-28T12:16:39;38.10;;;23.55;;
27804;SDS011;15183;51.350;11.102;2024-02-28T12:19:09;35.28;;;22.95;;
27804;SDS011;15183;51.350;11.102;2024-02-28T12:21:37;35.90;;;21.92;;
27804;SDS011;15183;51.350;11.102;2024-02-28T12:24:07;30.52;;;19.67;;
27804;SDS011;15183;51.350;11.102;2024-02-28T12:26:35;28.58;;;18.48;;
27804;SDS011;15183;51.350;11.102;2024-02-28T12:29:06;29.10;;;19.25;;
27804;SDS011;15183;51.350;11.102;2024-02-28T12:31:33;32.05;;;20.23;;
27804;SDS011;15183;51.350;11.102;2024-02-28T12:34:02;25.67;;;17.40;;
27804;SDS011;15183;51.350;11.102;2024-02-28T12:36:31;22.83;;;16.38;;
27804;SDS011;15183;51.350;11.102;2024-02-28T12:38:58;23.45;;;16.13;;
27804;SDS011;15183;51.350;11.102;2024-02-28T12:41:28;25.70;;;16.13;;
27804;SDS011;15183;51.350;11.102;2024-02-28T12:43:55;23.90;;;16.73;;
27804;SDS011;15183;51.350;11.102;2024-02-28T12:46:21;24.15;;;16.27;;
27804;SDS011;15183;51.350;11.102;2024-02-28T12:48:48;31.42;;;17.88;;
27804;SDS011;15183;51.350;11.102;2024-02-28T12:54:08;26.95;;;17.45;;
27804;SDS011;15183;51.350;11.102;2024-02-28T12:56:38;33.08;;;20.80;;
27804;SDS011;15183;51.350;11.102;2024-02-28T12:59:05;33.05;;;20.50;;
27804;SDS011;15183;51.350;11.102;2024-02-28T13:01:32;31.60;;;21.02;;
27804;SDS011;15183;51.350;11.102;2024-02-28T13:03:59;29.98;;;18.02;;
27804;SDS011;15183;51.350;11.102;2024-02-28T13:06:26;27.80;;;17.75;;
27804;SDS011;15183;51.350;11.102;2024-02-28T13:08:53;26.83;;;18.15;;
27804;SDS011;15183;51.350;11.102;2024-02-28T13:11:20;28.48;;;19.17;;
27804;SDS011;15183;51.350;11.102;2024-02-28T13:13:49;24.77;;;15.35;;
27804;SDS011;15183;51.350;11.102;2024-02-28T13:16:17;19.60;;;13.20;;
27804;SDS011;15183;51.350;11.102;2024-02-28T13:18:44;19.73;;;13.25;;
27804;SDS011;15183;51.350;11.102;2024-02-28T13:21:11;21.77;;;14.55;;
27804;SDS011;15183;51.350;11.102;2024-02-28T13:23:38;27.63;;;16.73;;
27804;SDS011;15183;51.350;11.102;2024-02-28T13:26:06;26.63;;;17.00;;
27804;SDS011;15183;51.350;11.102;2024-02-28T13:28:33;28.38;;;17.90;;
27804;SDS011;15183;51.350;11.102;2024-02-28T13:31:01;22.95;;;15.20;;
27804;SDS011;15183;51.350;11.102;2024-02-28T13:33:29;22.38;;;14.88;;
27804;SDS011;15183;51.350;11.102;2024-02-28T13:35:56;26.63;;;16.60;;
27804;SDS011;15183;51.350;11.102;2024-02-28T13:38:22;23.90;;;16.05;;
27804;SDS011;15183;51.350;11.102;2024-02-28T13:40:49;26.33;;;17.10;;
27804;SDS011;15183;51.350;11.102;2024-02-28T13:43:16;25.60;;;15.80;;
27804;SDS011;15183;51.350;11.102;2024-02-28T13:45:47;27.60;;;19.02;;
27804;SDS011;15183;51.350;11.102;2024-02-28T13:48:17;30.98;;;18.85;;
27804;SDS011;15183;51.350;11.102;2024-02-28T13:50:47;21.35;;;14.40;;
27804;SDS011;15183;51.350;11.102;2024-02-28T13:53:14;20.00;;;13.45;;
27804;SDS011;15183;51.350;11.102;2024-02-28T13:55:41;22.48;;;14.32;;
27804;SDS011;15183;51.350;11.102;2024-02-28T13:58:09;19.85;;;13.57;;
27804;SDS011;15183;51.350;11.102;2024-02-28T14:00:37;26.60;;;16.67;;
27804;SDS011;15183;51.350;11.102;2024-02-28T14:03:05;24.40;;;15.55;;
27804;SDS011;15183;51.350;11.102;2024-02-28T14:05:32;25.17;;;17.42;;
27804;SDS011;15183;51.350;11.102;2024-02-28T14:07:58;27.50;;;18.75;;
27804;SDS011;15183;51.350;11.102;2024-02-28T14:10:25;25.75;;;16.60;;
27804;SDS011;15183;51.350;11.102;2024-02-28T14:12:52;21.85;;;15.35;;
27804;SDS011;15183;51.350;11.102;2024-02-28T14:15:18;24.58;;;15.57;;
27804;SDS011;15183;51.350;11.102;2024-02-28T14:17:48;19.90;;;13.13;;
27804;SDS011;15183;51.350;11.102;2024-02-28T14:20:15;23.20;;;14.93;;
27804;SDS011;15183;51.350;11.102;2024-02-28T14:22:42;22.40;;;14.40;;